createdAt,value
2022-10-03T00:03:38.389Z,102071.25
2022-10-03T00:14:10.443Z,102077.84
2022-10-03T00:24:38.016Z,102087.06
2022-10-03T00:35:14.851Z,102090.59
2022-10-03T00:45:42.297Z,102107.97
2022-10-03T00:56:22.395Z,102121.16
2022-10-03T01:06:47.402Z,102135.19
2022-10-03T01:17:21.055Z,102131.97
2022-10-03T01:28:07.266Z,102134.91
2022-10-03T01:38:42.026Z,102145.72
2022-10-03T01:49:07.232Z,102159.28
2022-10-03T01:59:42.864Z,102165.06
2022-10-03T02:10:24.626Z,102171.53
2022-10-03T02:20:54.255Z,102184.28
2022-10-03T02:31:28.358Z,102187.69
2022-10-03T02:42:08.691Z,102185.97
2022-10-03T02:52:30.011Z,102188.94
2022-10-03T03:02:54.777Z,102188.94
2022-10-03T03:13:22.479Z,102204.69
2022-10-03T03:23:43.852Z,102213.63
2022-10-03T03:34:11.649Z,102210.69
2022-10-03T03:44:48.254Z,102213.47
2022-10-03T03:55:19.101Z,102217.84
2022-10-03T04:06:02.241Z,102223.72
2022-10-03T04:17:00.712Z,102235.75
2022-10-03T04:27:29.771Z,102243.25
2022-10-03T04:37:51.089Z,102256.63
2022-10-03T04:48:35.688Z,102266.94
2022-10-03T04:59:15.824Z,102262.06
2022-10-03T05:09:45.448Z,102272.84
2022-10-03T05:20:09.907Z,102280.72
2022-10-03T05:30:35.381Z,102285.94
2022-10-03T05:40:59.827Z,102290.09
2022-10-03T05:51:40.942Z,102298.88
2022-10-03T06:02:11.963Z,102289.97
2022-10-03T06:12:42.692Z,102303.44
2022-10-03T06:23:27.210Z,102313.88
2022-10-03T06:34:08.258Z,102311.25
2022-10-03T06:44:32.771Z,102313.97
2022-10-03T06:55:13.056Z,102320.59
2022-10-03T07:05:53.338Z,102313.66
2022-10-03T07:16:33.708Z,102328.34
2022-10-03T07:26:58.303Z,102345.28
2022-10-03T07:37:58.713Z,102349.97
2022-10-03T07:48:35.325Z,102359.63
2022-10-03T07:59:04.714Z,102374.31
2022-10-03T08:09:38.309Z,102381.69
2022-10-03T08:20:07.841Z,102394.06
2022-10-03T08:30:49.147Z,102401.81
2022-10-03T08:41:29.388Z,102410.22
2022-10-03T08:51:50.784Z,102415.88
2022-10-03T09:02:36.086Z,102417.09
2022-10-03T09:13:16.469Z,102419.34
2022-10-03T09:23:40.913Z,102418.34
2022-10-03T09:34:28.871Z,102413.59
2022-10-03T09:45:09.943Z,102411.09
2022-10-03T09:55:43.525Z,102417.31
2022-10-03T10:06:17.767Z,102418.06
2022-10-03T10:16:49.666Z,102416.94
2022-10-03T10:27:33.245Z,102415.16
2022-10-03T10:38:15.349Z,102398.31
2022-10-03T10:48:42.698Z,102412.69
2022-10-03T10:59:22.857Z,102410.63
2022-10-03T11:09:52.619Z,102409.31
2022-10-03T11:20:36.946Z,102401.25
2022-10-03T11:31:17.192Z,102401.75
2022-10-03T11:41:47.625Z,102393.81
2022-10-03T11:52:08.949Z,102404.34
2022-10-03T12:02:34.524Z,102397.03
2022-10-03T12:12:57.309Z,102388.84
2022-10-03T12:23:21.788Z,102388.28
2022-10-03T12:33:46.878Z,102385.03
2022-10-03T12:44:28.472Z,102378.59
2022-10-03T12:55:10.126Z,102385.13
2022-10-03T13:05:55.658Z,102382.25
2022-10-03T13:16:34.859Z,102381.97
2022-10-03T13:26:56.198Z,102384.53
2022-10-03T13:37:40.657Z,102380.81
2022-10-03T13:48:07.394Z,102377.09
2022-10-03T13:58:30.477Z,102365.06
2022-10-03T14:09:27.990Z,102372.47
2022-10-03T14:20:07.980Z,102363.16
2022-10-03T14:30:31.265Z,102359.94
2022-10-03T14:41:02.775Z,102352.16
2022-10-03T14:51:30.324Z,102349.25
2022-10-03T15:01:55.901Z,102336.25
2022-10-03T15:12:22.457Z,102331.50
2022-10-03T15:22:49.797Z,102330.38
2022-10-03T15:33:16.663Z,102328.47
2022-10-03T15:43:50.805Z,102319.25
2022-10-03T15:54:15.977Z,102322.00
2022-10-03T16:04:41.499Z,102317.63
2022-10-03T16:15:17.171Z,102313.25
2022-10-03T16:25:43.480Z,102313.75
2022-10-03T16:36:06.191Z,102316.22
2022-10-03T16:46:31.417Z,102312.41
2022-10-03T16:56:57.989Z,102313.19
2022-10-03T17:07:23.592Z,102306.69
2022-10-03T17:18:03.740Z,102306.69
2022-10-03T17:28:37.639Z,102301.25
2022-10-03T17:39:08.356Z,102293.31
2022-10-03T17:49:40.469Z,102294.44
2022-10-03T18:00:07.625Z,102293.16
2022-10-03T18:10:31.751Z,102293.69
2022-10-03T18:21:04.153Z,102284.88
2022-10-03T18:31:26.660Z,102279.72
2022-10-03T18:41:50.751Z,102285.28
2022-10-03T18:52:19.998Z,102287.84
2022-10-03T19:02:44.407Z,102294.38
2022-10-03T19:13:05.737Z,102277.06
2022-10-03T19:23:38.604Z,102274.06
2022-10-03T19:34:20.265Z,102261.75
2022-10-03T19:44:42.020Z,102259.75
2022-10-03T19:55:32.965Z,102264.84
2022-10-03T20:06:13.128Z,102262.94
2022-10-03T20:16:41.003Z,102250.06
2022-10-03T20:27:17.797Z,102240.31
2022-10-03T20:37:39.401Z,102247.19
2022-10-03T20:48:03.651Z,102250.97
2022-10-03T20:58:36.067Z,102241.50
2022-10-03T21:08:58.343Z,102242.66
2022-10-03T21:19:22.697Z,102242.19
2022-10-03T21:30:02.498Z,102234.13
2022-10-03T21:40:46.916Z,102222.34
2022-10-03T21:51:17.416Z,102223.72
2022-10-03T22:01:48.658Z,102226.19
2022-10-03T22:12:10.776Z,102215.09
2022-10-03T22:22:56.061Z,102218.91
2022-10-03T22:33:22.648Z,102207.72
2022-10-03T22:43:44.907Z,102200.25
2022-10-03T22:54:10.257Z,102196.56
2022-10-03T23:04:34.990Z,102172.97
2022-10-03T23:14:58.704Z,102163.59
2022-10-03T23:25:26.642Z,102166.19
2022-10-03T23:35:48.945Z,102151.13
2022-10-03T23:46:12.911Z,102148.97
2022-10-03T23:56:44.769Z,102143.28
